createdAt,value
2019-05-03T00:02:37.440Z,7.28
2019-05-03T00:05:22.319Z,7.20
2019-05-03T00:08:02.159Z,8.03
2019-05-03T00:10:38.149Z,7.17
2019-05-03T00:13:12.522Z,6.97
2019-05-03T00:16:00.156Z,6.47
2019-05-03T00:18:32.924Z,8.10
2019-05-03T00:21:06.074Z,8.15
2019-05-03T00:23:39.042Z,7.35
2019-05-03T00:26:12.245Z,8.48
2019-05-03T00:28:45.737Z,8.15
2019-05-03T00:31:18.612Z,7.70
2019-05-03T00:33:55.717Z,8.20
2019-05-03T00:36:35.357Z,7.20
2019-05-03T00:39:22.968Z,7.42
2019-05-03T00:41:56.009Z,7.58
2019-05-03T00:44:29.359Z,7.40
2019-05-03T00:47:02.379Z,7.67
2019-05-03T00:49:36.203Z,8.78
2019-05-03T00:52:11.647Z,7.78
2019-05-03T00:54:45.179Z,8.75
2019-05-03T00:57:18.520Z,8.73
2019-05-03T00:59:52.812Z,8.75
2019-05-03T01:02:26.359Z,7.15
2019-05-03T01:04:59.900Z,6.70
2019-05-03T01:07:33.211Z,6.35
2019-05-03T01:10:08.981Z,5.80
2019-05-03T01:12:41.729Z,6.37
2019-05-03T01:15:23.226Z,5.70
2019-05-03T01:17:56.749Z,4.95
2019-05-03T01:20:29.627Z,5.45
2019-05-03T01:23:03.186Z,6.65
2019-05-03T01:25:36.192Z,5.67
2019-05-03T01:28:09.233Z,5.17
2019-05-03T01:30:43.088Z,5.30
2019-05-03T01:33:16.405Z,4.22
2019-05-03T01:35:51.891Z,4.80
2019-05-03T01:38:25.123Z,5.75
2019-05-03T01:40:58.442Z,4.75
2019-05-03T01:43:31.903Z,5.10
2019-05-03T01:46:04.611Z,5.90
2019-05-03T01:48:52.202Z,5.42
2019-05-03T01:51:33.625Z,6.40
2019-05-03T01:54:07.124Z,6.12
2019-05-03T01:56:43.299Z,5.60
2019-05-03T01:59:14.944Z,5.10
2019-05-03T02:02:16.921Z,5.40
2019-05-03T02:04:57.332Z,5.92
2019-05-03T02:07:31.648Z,5.60
2019-05-03T02:10:05.197Z,5.72
2019-05-03T02:12:38.812Z,5.97
2019-05-03T02:15:12.498Z,5.60
2019-05-03T02:17:45.605Z,6.10
2019-05-03T02:20:18.255Z,6.15
2019-05-03T02:22:52.207Z,6.03
2019-05-03T02:25:25.057Z,6.22
2019-05-03T02:27:59.607Z,6.05
2019-05-03T02:30:34.209Z,6.22
2019-05-03T02:33:07.301Z,6.08
2019-05-03T02:35:42.726Z,5.95
2019-05-03T02:38:15.628Z,6.30
2019-05-03T02:40:48.640Z,5.47
2019-05-03T02:43:49.653Z,6.05
2019-05-03T02:46:45.525Z,5.60
2019-05-03T02:49:26.133Z,6.62
2019-05-03T02:51:59.508Z,6.10
2019-05-03T02:54:35.283Z,6.78
2019-05-03T02:57:08.416Z,7.78
2019-05-03T02:59:41.999Z,5.55
2019-05-03T03:02:15.661Z,6.17
2019-05-03T03:04:49.002Z,5.53
2019-05-03T03:07:25.638Z,5.75
2019-05-03T03:09:59.351Z,6.47
2019-05-03T03:12:35.542Z,5.50
2019-05-03T03:15:09.930Z,6.78
2019-05-03T03:17:45.755Z,6.12
2019-05-03T03:20:19.524Z,6.78
2019-05-03T03:22:55.895Z,7.17
2019-05-03T03:25:36.201Z,5.67
2019-05-03T03:28:12.187Z,6.67
2019-05-03T03:31:21.361Z,6.17
2019-05-03T03:33:59.019Z,4.78
2019-05-03T03:36:54.447Z,6.20
2019-05-03T03:39:11.684Z,7.28
2019-05-03T03:41:46.689Z,7.60
2019-05-03T03:44:21.027Z,6.30
2019-05-03T03:46:56.173Z,6.10
2019-05-03T03:49:30.917Z,6.05
2019-05-03T03:52:06.178Z,6.65
2019-05-03T03:54:41.711Z,6.50
2019-05-03T03:57:16.177Z,6.55
2019-05-03T03:59:49.687Z,6.92
2019-05-03T04:02:22.600Z,6.55
2019-05-03T04:04:56.237Z,6.75
2019-05-03T04:07:29.183Z,6.70
2019-05-03T04:10:05.531Z,6.45
2019-05-03T04:12:38.124Z,7.00
2019-05-03T04:15:40.090Z,7.03
2019-05-03T04:18:21.161Z,6.80
2019-05-03T04:20:55.988Z,6.35
2019-05-03T04:23:31.378Z,5.37
2019-05-03T04:26:07.071Z,5.35
2019-05-03T04:28:41.554Z,5.90
2019-05-03T04:31:15.442Z,5.72
2019-05-03T04:33:49.463Z,6.90
2019-05-03T04:36:22.458Z,6.55
2019-05-03T04:38:56.467Z,5.70
2019-05-03T04:41:30.170Z,5.37
2019-05-03T04:44:06.386Z,4.37
2019-05-03T04:46:38.304Z,4.75
2019-05-03T04:49:10.951Z,5.00
2019-05-03T04:51:46.566Z,4.28
2019-05-03T04:54:45.188Z,5.05
2019-05-03T04:57:35.062Z,4.33
2019-05-03T04:59:55.999Z,4.97
2019-05-03T05:02:29.323Z,3.37
2019-05-03T05:05:02.267Z,3.45
2019-05-03T05:07:37.246Z,4.50
2019-05-03T05:10:10.862Z,3.05
2019-05-03T05:12:45.767Z,3.37
2019-05-03T05:15:18.803Z,3.20
2019-05-03T05:18:02.141Z,3.35
2019-05-03T05:20:48.757Z,3.70
2019-05-03T05:23:24.957Z,3.60
2019-05-03T05:26:10.810Z,3.03
2019-05-03T05:28:51.980Z,3.90
2019-05-03T05:31:25.711Z,3.80
2019-05-03T05:33:58.849Z,3.40
2019-05-03T05:36:34.758Z,3.10
2019-05-03T05:39:08.439Z,3.43
2019-05-03T05:41:41.097Z,4.13
2019-05-03T05:44:14.916Z,3.00
2019-05-03T05:47:07.147Z,3.00
2019-05-03T05:49:54.585Z,3.60
2019-05-03T05:52:28.187Z,2.50
2019-05-03T05:55:25.301Z,2.30
2019-05-03T05:58:07.520Z,3.00
2019-05-03T06:00:47.907Z,2.70
2019-05-03T06:03:22.610Z,2.77
2019-05-03T06:05:58.254Z,2.60
2019-05-03T06:08:44.771Z,2.50
2019-05-03T06:11:44.923Z,2.67
2019-05-03T06:14:24.631Z,2.50
2019-05-03T06:17:14.635Z,2.97
2019-05-03T06:20:05.769Z,3.05
2019-05-03T06:22:44.820Z,2.70
2019-05-03T06:25:26.460Z,3.03
2019-05-03T06:28:01.275Z,2.43
2019-05-03T06:30:45.443Z,3.42
2019-05-03T06:33:19.316Z,3.10
2019-05-03T06:35:52.248Z,2.85
2019-05-03T06:38:25.767Z,2.70
2019-05-03T06:40:59.262Z,2.77
2019-05-03T06:43:32.247Z,2.62
2019-05-03T06:46:05.421Z,2.85
2019-05-03T06:48:39.192Z,3.55
2019-05-03T06:51:19.247Z,2.62
2019-05-03T06:53:50.623Z,2.40
2019-05-03T06:56:28.983Z,2.87
2019-05-03T06:58:59.288Z,2.77
2019-05-03T07:01:40.698Z,3.33
2019-05-03T07:04:24.577Z,3.15
2019-05-03T07:07:07.769Z,3.12
2019-05-03T07:10:06.193Z,3.08
2019-05-03T07:12:56.995Z,2.55
2019-05-03T07:15:31.096Z,2.90
2019-05-03T07:18:05.790Z,2.17
2019-05-03T07:20:50.249Z,2.70
2019-05-03T07:23:24.463Z,2.15
2019-05-03T07:25:58.432Z,2.45
2019-05-03T07:28:44.396Z,1.70
2019-05-03T07:31:07.399Z,2.08
2019-05-03T07:33:42.011Z,2.02
2019-05-03T07:36:15.529Z,2.30
2019-05-03T07:38:48.828Z,2.15
2019-05-03T07:41:25.074Z,2.70
2019-05-03T07:43:58.873Z,3.33
2019-05-03T07:46:34.894Z,2.10
2019-05-03T07:49:08.048Z,2.37
2019-05-03T07:51:41.164Z,2.42
2019-05-03T07:54:15.700Z,1.77
2019-05-03T07:56:54.914Z,2.20
2019-05-03T07:59:28.685Z,1.95
2019-05-03T08:02:01.703Z,2.12
2019-05-03T08:04:35.838Z,2.40
2019-05-03T08:07:19.940Z,2.50
2019-05-03T08:09:45.326Z,2.40
2019-05-03T08:12:18.006Z,1.77
2019-05-03T08:14:50.698Z,1.65
2019-05-03T08:17:25.358Z,2.77
2019-05-03T08:19:58.163Z,1.75
2019-05-03T08:22:34.411Z,1.92
2019-05-03T08:25:07.087Z,1.85
2019-05-03T08:27:40.482Z,1.90
2019-05-03T08:30:17.120Z,1.82
2019-05-03T08:33:21.483Z,1.60
2019-05-03T08:35:55.599Z,1.85
2019-05-03T08:38:29.002Z,1.67
2019-05-03T08:41:05.289Z,1.98
2019-05-03T08:43:38.381Z,2.00
2019-05-03T08:46:11.731Z,1.75
2019-05-03T08:48:45.604Z,1.50
2019-05-03T08:51:18.999Z,1.70
2019-05-03T08:53:51.339Z,1.90
2019-05-03T08:56:24.755Z,1.95
2019-05-03T08:59:26.763Z,2.00
2019-05-03T09:02:14.142Z,1.95
2019-05-03T09:04:42.895Z,1.98
2019-05-03T09:07:14.787Z,2.45
2019-05-03T09:10:06.182Z,1.75
2019-05-03T09:12:58.055Z,1.92
2019-05-03T09:15:31.516Z,1.85
2019-05-03T09:18:04.934Z,1.65
2019-05-03T09:20:37.996Z,1.70
2019-05-03T09:23:11.508Z,1.80
2019-05-03T09:25:45.808Z,1.55
2019-05-03T09:28:19.153Z,2.30
2019-05-03T09:30:52.190Z,2.45
2019-05-03T09:33:25.036Z,1.65
2019-05-03T09:35:58.553Z,2.20
2019-05-03T09:38:31.550Z,1.42
2019-05-03T09:41:05.197Z,1.80
2019-05-03T09:43:38.375Z,1.80
2019-05-03T09:46:14.387Z,2.27
2019-05-03T09:48:47.186Z,1.80
2019-05-03T09:51:20.704Z,1.80
2019-05-03T09:53:58.910Z,1.80
2019-05-03T09:56:57.522Z,1.52
2019-05-03T09:59:27.205Z,2.17
2019-05-03T10:02:01.926Z,1.52
2019-05-03T10:04:36.691Z,1.50
2019-05-03T10:07:09.697Z,2.37
2019-05-03T10:09:44.939Z,1.70
2019-05-03T10:12:19.944Z,1.90
2019-05-03T10:14:54.849Z,2.20
2019-05-03T10:17:55.318Z,1.95
2019-05-03T10:20:28.544Z,2.60
2019-05-03T10:23:10.795Z,2.05
2019-05-03T10:25:45.568Z,3.02
2019-05-03T10:28:19.514Z,1.55
2019-05-03T10:30:54.753Z,1.45
2019-05-03T10:33:31.534Z,1.75
2019-05-03T10:36:05.536Z,1.90
2019-05-03T10:38:39.066Z,1.80
2019-05-03T10:41:12.666Z,1.80
2019-05-03T10:43:46.431Z,1.97
2019-05-03T10:46:20.053Z,2.00
2019-05-03T10:48:55.615Z,2.00
2019-05-03T10:51:32.616Z,1.73
2019-05-03T10:54:06.316Z,1.40
2019-05-03T10:56:55.456Z,1.67
2019-05-03T10:59:29.372Z,1.83
2019-05-03T11:02:25.307Z,1.50
2019-05-03T11:04:59.123Z,1.60
2019-05-03T11:07:34.459Z,1.60
2019-05-03T11:10:10.339Z,1.30
2019-05-03T11:12:43.565Z,2.30
2019-05-03T11:15:16.273Z,1.83
2019-05-03T11:17:50.089Z,1.93
2019-05-03T11:20:36.195Z,1.90
2019-05-03T11:23:10.198Z,1.80
2019-05-03T11:25:45.233Z,1.97
2019-05-03T11:28:24.947Z,2.05
2019-05-03T11:31:09.627Z,1.42
2019-05-03T11:33:42.719Z,1.80
2019-05-03T11:36:19.891Z,1.70
2019-05-03T11:38:52.768Z,1.90
2019-05-03T11:41:32.004Z,1.60
2019-05-03T11:44:20.301Z,1.50
2019-05-03T11:46:55.124Z,1.80
2019-05-03T11:49:28.679Z,1.63
2019-05-03T11:52:02.488Z,1.57
2019-05-03T11:54:36.056Z,1.53
2019-05-03T11:57:15.873Z,2.07
2019-05-03T11:59:49.178Z,1.50
2019-05-03T12:02:46.714Z,1.67
2019-05-03T12:05:25.555Z,1.50
2019-05-03T12:08:01.201Z,1.80
2019-05-03T12:10:49.830Z,1.17
2019-05-03T12:13:25.702Z,2.33
2019-05-03T12:15:59.941Z,1.70
2019-05-03T12:18:47.817Z,1.75
2019-05-03T12:21:09.735Z,1.70
2019-05-03T12:23:43.306Z,2.50
2019-05-03T12:26:18.656Z,1.95
2019-05-03T12:28:52.012Z,1.70
2019-05-03T12:31:36.314Z,2.25
2019-05-03T12:33:59.693Z,1.77
2019-05-03T12:36:38.841Z,2.17
2019-05-03T12:39:23.194Z,2.30
2019-05-03T12:41:43.422Z,2.30
2019-05-03T12:44:16.616Z,1.77
2019-05-03T12:46:49.702Z,1.98
2019-05-03T12:49:24.958Z,2.65
2019-05-03T12:51:58.014Z,2.12
2019-05-03T12:54:31.114Z,1.90
2019-05-03T12:57:05.296Z,2.00
2019-05-03T12:59:58.302Z,1.70
2019-05-03T13:02:36.245Z,2.25
2019-05-03T13:05:09.379Z,1.62
2019-05-03T13:08:07.370Z,1.82
2019-05-03T13:10:40.541Z,2.05
2019-05-03T13:13:14.658Z,2.55
2019-05-03T13:15:48.160Z,2.10
2019-05-03T13:18:21.568Z,1.60
2019-05-03T13:20:55.842Z,2.47
2019-05-03T23:24:50.739Z,4.70
2019-05-03T23:27:25.054Z,6.05
2019-05-03T23:29:58.699Z,4.90
2019-05-03T23:32:32.421Z,5.50
2019-05-03T23:35:05.683Z,4.42
2019-05-03T23:37:39.815Z,3.70
2019-05-03T23:40:14.727Z,3.25
2019-05-03T23:42:47.835Z,3.72
2019-05-03T23:45:20.797Z,4.30
2019-05-03T23:47:53.722Z,4.80
2019-05-03T23:50:26.995Z,4.40
2019-05-03T23:53:00.094Z,4.28
2019-05-03T23:55:49.841Z,4.65
2019-05-03T23:58:24.570Z,5.47
